sensor_id;sensor_type;location;lat;lon;timestamp;pressure;altitude;pressure_sealevel;temperature
45393;BMP280;31129;44.810;10.334;2023-08-20T00:01:42;101003.06;;;29.54
45393;BMP280;31129;44.810;10.334;2023-08-20T00:04:08;101006.47;;;29.52
45393;BMP280;31129;44.810;10.334;2023-08-20T00:06:42;101008.56;;;29.52
45393;BMP280;31129;44.810;10.334;2023-08-20T00:09:09;100997.38;;;29.33
45393;BMP280;31129;44.810;10.334;2023-08-20T00:11:36;101002.44;;;29.34
45393;BMP280;31129;44.810;10.334;2023-08-20T00:14:01;100997.84;;;29.29
45393;BMP280;31129;44.810;10.334;2023-08-20T00:16:27;100998.28;;;29.35
45393;BMP280;31129;44.810;10.334;2023-08-20T00:18:52;100992.69;;;29.26
45393;BMP280;31129;44.810;10.334;2023-08-20T00:21:18;100984.25;;;29.26
45393;BMP280;31129;44.810;10.334;2023-08-20T00:23:43;100989.00;;;29.23
45393;BMP280;31129;44.810;10.334;2023-08-20T00:26:09;100986.19;;;29.23
45393;BMP280;31129;44.810;10.334;2023-08-20T00:28:35;100989.13;;;29.25
45393;BMP280;31129;44.810;10.334;2023-08-20T00:31:03;100989.09;;;29.35
45393;BMP280;31129;44.810;10.334;2023-08-20T00:33:29;100985.19;;;29.19
45393;BMP280;31129;44.810;10.334;2023-08-20T00:35:54;100983.50;;;29.25
45393;BMP280;31129;44.810;10.334;2023-08-20T00:38:20;100977.88;;;29.25
45393;BMP280;31129;44.810;10.334;2023-08-20T00:40:45;100977.03;;;29.13
45393;BMP280;31129;44.810;10.334;2023-08-20T00:43:11;100985.56;;;29.25
45393;BMP280;31129;44.810;10.334;2023-08-20T00:45:36;100983.22;;;29.21
45393;BMP280;31129;44.810;10.334;2023-08-20T00:48:03;100979.56;;;29.19
45393;BMP280;31129;44.810;10.334;2023-08-20T00:50:28;100976.22;;;29.01
45393;BMP280;31129;44.810;10.334;2023-08-20T00:52:54;100974.22;;;28.82
45393;BMP280;31129;44.810;10.334;2023-08-20T00:55:20;100986.78;;;28.91
45393;BMP280;31129;44.810;10.334;2023-08-20T00:57:46;100982.91;;;28.96
45393;BMP280;31129;44.810;10.334;2023-08-20T01:00:11;100990.31;;;28.91
45393;BMP280;31129;44.810;10.334;2023-08-20T01:02:37;100991.94;;;28.94
45393;BMP280;31129;44.810;10.334;2023-08-20T01:05:04;100993.97;;;29.03
45393;BMP280;31129;44.810;10.334;2023-08-20T01:12:45;100998.34;;;28.76
45393;BMP280;31129;44.810;10.334;2023-08-20T01:15:12;101001.50;;;28.70
45393;BMP280;31129;44.810;10.334;2023-08-20T01:17:42;101003.84;;;28.64
45393;BMP280;31129;44.810;10.334;2023-08-20T01:20:08;101008.72;;;28.54
45393;BMP280;31129;44.810;10.334;2023-08-20T01:30:10;101020.56;;;28.33
45393;BMP280;31129;44.810;10.334;2023-08-20T01:32:36;101015.84;;;28.45
45393;BMP280;31129;44.810;10.334;2023-08-20T01:35:03;101016.28;;;28.23
45393;BMP280;31129;44.810;10.334;2023-08-20T01:37:30;101014.97;;;28.33
45393;BMP280;31129;44.810;10.334;2023-08-20T01:39:55;101019.41;;;28.46
45393;BMP280;31129;44.810;10.334;2023-08-20T01:42:20;101025.03;;;28.46
45393;BMP280;31129;44.810;10.334;2023-08-20T01:44:46;101019.56;;;28.09
45393;BMP280;31129;44.810;10.334;2023-08-20T01:47:11;101015.22;;;28.08
45393;BMP280;31129;44.810;10.334;2023-08-20T01:49:37;101020.25;;;28.20
45393;BMP280;31129;44.810;10.334;2023-08-20T01:52:02;101017.03;;;28.33
45393;BMP280;31129;44.810;10.334;2023-08-20T01:54:29;101020.13;;;28.37
45393;BMP280;31129;44.810;10.334;2023-08-20T01:56:55;101026.91;;;28.53
45393;BMP280;31129;44.810;10.334;2023-08-20T01:59:21;101029.59;;;28.41
45393;BMP280;31129;44.810;10.334;2023-08-20T02:01:46;101030.78;;;28.09
45393;BMP280;31129;44.810;10.334;2023-08-20T02:04:12;101030.88;;;27.92
45393;BMP280;31129;44.810;10.334;2023-08-20T02:06:37;101025.25;;;27.83
45393;BMP280;31129;44.810;10.334;2023-08-20T02:09:03;101032.28;;;27.64
45393;BMP280;31129;44.810;10.334;2023-08-20T02:11:28;101030.09;;;27.73
45393;BMP280;31129;44.810;10.334;2023-08-20T02:13:55;101031.66;;;27.56
45393;BMP280;31129;44.810;10.334;2023-08-20T02:16:20;101026.19;;;27.58
45393;BMP280;31129;44.810;10.334;2023-08-20T02:18:45;101026.50;;;27.62
45393;BMP280;31129;44.810;10.334;2023-08-20T02:21:11;101035.50;;;27.61
45393;BMP280;31129;44.810;10.334;2023-08-20T02:23:36;101027.16;;;27.80
45393;BMP280;31129;44.810;10.334;2023-08-20T02:26:05;101022.72;;;27.77
45393;BMP280;31129;44.810;10.334;2023-08-20T02:28:30;101023.88;;;27.74
45393;BMP280;31129;44.810;10.334;2023-08-20T02:30:55;101023.19;;;27.83
45393;BMP280;31129;44.810;10.334;2023-08-20T02:33:22;101026.69;;;27.74
45393;BMP280;31129;44.810;10.334;2023-08-20T02:35:48;101025.06;;;27.71
45393;BMP280;31129;44.810;10.334;2023-08-20T02:38:13;101025.88;;;27.45
45393;BMP280;31129;44.810;10.334;2023-08-20T02:40:41;101028.25;;;27.58
45393;BMP280;31129;44.810;10.334;2023-08-20T02:43:06;101025.44;;;27.48
45393;BMP280;31129;44.810;10.334;2023-08-20T02:45:32;101034.53;;;27.39
45393;BMP280;31129;44.810;10.334;2023-08-20T02:47:57;101036.72;;;27.31
45393;BMP280;31129;44.810;10.334;2023-08-20T02:50:23;101036.78;;;27.41
45393;BMP280;31129;44.810;10.334;2023-08-20T02:52:48;101026.59;;;27.45
45393;BMP280;31129;44.810;10.334;2023-08-20T02:55:14;101032.81;;;27.44
45393;BMP280;31129;44.810;10.334;2023-08-20T02:57:39;101030.34;;;27.21
45393;BMP280;31129;44.810;10.334;2023-08-20T03:00:05;101032.25;;;27.18
45393;BMP280;31129;44.810;10.334;2023-08-20T03:02:35;101026.53;;;27.26
45393;BMP280;31129;44.810;10.334;2023-08-20T03:05:00;101039.63;;;27.24
45393;BMP280;31129;44.810;10.334;2023-08-20T03:07:25;101034.41;;;27.10
45393;BMP280;31129;44.810;10.334;2023-08-20T03:09:51;101029.44;;;27.18
45393;BMP280;31129;44.810;10.334;2023-08-20T03:12:16;101029.16;;;27.24
45393;BMP280;31129;44.810;10.334;2023-08-20T03:14:42;101034.09;;;27.33
45393;BMP280;31129;44.810;10.334;2023-08-20T03:17:07;101031.97;;;27.24
45393;BMP280;31129;44.810;10.334;2023-08-20T03:19:33;101029.03;;;27.22
45393;BMP280;31129;44.810;10.334;2023-08-20T03:21:59;101030.78;;;27.27
45393;BMP280;31129;44.810;10.334;2023-08-20T03:24:24;101035.84;;;27.29
45393;BMP280;31129;44.810;10.334;2023-08-20T03:26:50;101034.47;;;27.20
45393;BMP280;31129;44.810;10.334;2023-08-20T03:29:15;101025.09;;;27.08
45393;BMP280;31129;44.810;10.334;2023-08-20T03:31:41;101025.69;;;27.06
45393;BMP280;31129;44.810;10.334;2023-08-20T03:34:06;101029.59;;;27.21
45393;BMP280;31129;44.810;10.334;2023-08-20T03:36:34;101031.41;;;27.26
45393;BMP280;31129;44.810;10.334;2023-08-20T03:38:59;101024.06;;;27.40
45393;BMP280;31129;44.810;10.334;2023-08-20T03:41:24;101032.03;;;27.34
45393;BMP280;31129;44.810;10.334;2023-08-20T03:43:50;101034.22;;;27.26
45393;BMP280;31129;44.810;10.334;2023-08-20T03:46:15;101029.34;;;27.26
45393;BMP280;31129;44.810;10.334;2023-08-20T03:48:42;101024.31;;;27.25
45393;BMP280;31129;44.810;10.334;2023-08-20T03:51:07;101033.69;;;27.10
45393;BMP280;31129;44.810;10.334;2023-08-20T03:53:33;101030.34;;;27.21
45393;BMP280;31129;44.810;10.334;2023-08-20T03:55:58;101035.06;;;27.18
45393;BMP280;31129;44.810;10.334;2023-08-20T03:58:27;101031.91;;;27.14
45393;BMP280;31129;44.810;10.334;2023-08-20T04:00:52;101028.13;;;27.20
45393;BMP280;31129;44.810;10.334;2023-08-20T04:03:18;101035.84;;;27.29
45393;BMP280;31129;44.810;10.334;2023-08-20T04:05:45;101038.19;;;27.23
45393;BMP280;31129;44.810;10.334;2023-08-20T04:08:10;101040.69;;;27.28
45393;BMP280;31129;44.810;10.334;2023-08-20T04:10:35;101039.06;;;27.25
45393;BMP280;31129;44.810;10.334;2023-08-20T04:13:07;101041.72;;;27.23
45393;BMP280;31129;44.810;10.334;2023-08-20T04:15:32;101041.34;;;27.09
45393;BMP280;31129;44.810;10.334;2023-08-20T04:17:57;101036.97;;;26.99
45393;BMP280;31129;44.810;10.334;2023-08-20T04:20:23;101037.81;;;26.92
45393;BMP280;31129;44.810;10.334;2023-08-20T04:22:48;101050.53;;;26.93
45393;BMP280;31129;44.810;10.334;2023-08-20T04:25:14;101050.84;;;26.97
45393;BMP280;31129;44.810;10.334;2023-08-20T04:27:39;101048.78;;;26.97
45393;BMP280;31129;44.810;10.334;2023-08-20T04:30:05;101054.16;;;27.03
45393;BMP280;31129;44.810;10.334;2023-08-20T04:32:31;101053.72;;;27.06
45393;BMP280;31129;44.810;10.334;2023-08-20T04:34:57;101067.16;;;27.08
45393;BMP280;31129;44.810;10.334;2023-08-20T04:37:23;101063.78;;;27.09
45393;BMP280;31129;44.810;10.334;2023-08-20T04:39:49;101059.34;;;27.06
45393;BMP280;31129;44.810;10.334;2023-08-20T04:42:15;101066.25;;;27.32
45393;BMP280;31129;44.810;10.334;2023-08-20T04:44:40;101062.34;;;27.45
45393;BMP280;31129;44.810;10.334;2023-08-20T04:47:10;101067.25;;;27.54
45393;BMP280;31129;44.810;10.334;2023-08-20T04:49:35;101067.78;;;27.43
45393;BMP280;31129;44.810;10.334;2023-08-20T04:52:01;101066.88;;;27.40
45393;BMP280;31129;44.810;10.334;2023-08-20T04:54:29;101068.66;;;27.45
45393;BMP280;31129;44.810;10.334;2023-08-20T04:56:54;101079.50;;;27.58
45393;BMP280;31129;44.810;10.334;2023-08-20T04:59:21;101072.19;;;27.73
45393;BMP280;31129;44.810;10.334;2023-08-20T05:01:52;101070.78;;;27.54
45393;BMP280;31129;44.810;10.334;2023-08-20T05:04:36;101074.84;;;27.71
45393;BMP280;31129;44.810;10.334;2023-08-20T05:07:02;101073.94;;;27.68
45393;BMP280;31129;44.810;10.334;2023-08-20T05:09:28;101082.97;;;27.67
45393;BMP280;31129;44.810;10.334;2023-08-20T05:11:53;101079.88;;;27.72
45393;BMP280;31129;44.810;10.334;2023-08-20T05:14:19;101081.47;;;27.65
45393;BMP280;31129;44.810;10.334;2023-08-20T05:16:44;101084.31;;;27.75
45393;BMP280;31129;44.810;10.334;2023-08-20T05:19:10;101091.28;;;27.93
45393;BMP280;31129;44.810;10.334;2023-08-20T05:21:35;101092.34;;;27.88
45393;BMP280;31129;44.810;10.334;2023-08-20T05:24:01;101098.13;;;27.54
45393;BMP280;31129;44.810;10.334;2023-08-20T05:26:29;101096.09;;;27.64
45393;BMP280;31129;44.810;10.334;2023-08-20T05:28:54;101095.00;;;27.96
45393;BMP280;31129;44.810;10.334;2023-08-20T05:31:20;101095.16;;;27.98
45393;BMP280;31129;44.810;10.334;2023-08-20T05:33:46;101095.16;;;28.07
45393;BMP280;31129;44.810;10.334;2023-08-20T05:36:11;101099.97;;;28.24
45393;BMP280;31129;44.810;10.334;2023-08-20T05:38:37;101103.97;;;28.31
45393;BMP280;31129;44.810;10.334;2023-08-20T05:41:02;101105.28;;;28.30
45393;BMP280;31129;44.810;10.334;2023-08-20T05:43:28;101111.03;;;28.32
45393;BMP280;31129;44.810;10.334;2023-08-20T05:45:55;101116.34;;;27.45
45393;BMP280;31129;44.810;10.334;2023-08-20T05:48:22;101114.09;;;27.17
45393;BMP280;31129;44.810;10.334;2023-08-20T05:50:47;101124.09;;;27.10
45393;BMP280;31129;44.810;10.334;2023-08-20T05:53:14;101110.66;;;27.26
45393;BMP280;31129;44.810;10.334;2023-08-20T05:55:39;101117.97;;;27.39
45393;BMP280;31129;44.810;10.334;2023-08-20T05:58:05;101120.91;;;27.67
45393;BMP280;31129;44.810;10.334;2023-08-20T06:00:32;101116.00;;;27.95
45393;BMP280;31129;44.810;10.334;2023-08-20T06:02:57;101112.78;;;28.18
45393;BMP280;31129;44.810;10.334;2023-08-20T06:05:23;101112.78;;;28.18
45393;BMP280;31129;44.810;10.334;2023-08-20T06:07:48;101126.03;;;27.88
45393;BMP280;31129;44.810;10.334;2023-08-20T06:10:15;101119.28;;;27.64
45393;BMP280;31129;44.810;10.334;2023-08-20T06:12:40;101120.69;;;27.56
45393;BMP280;31129;44.810;10.334;2023-08-20T06:15:06;101125.13;;;27.59
45393;BMP280;31129;44.810;10.334;2023-08-20T06:17:31;101121.91;;;27.62
45393;BMP280;31129;44.810;10.334;2023-08-20T06:19:57;101127.38;;;27.60
45393;BMP280;31129;44.810;10.334;2023-08-20T06:22:22;101129.19;;;27.65
45393;BMP280;31129;44.810;10.334;2023-08-20T06:24:48;101124.78;;;27.72
45393;BMP280;31129;44.810;10.334;2023-08-20T06:27:13;101131.88;;;27.73
45393;BMP280;31129;44.810;10.334;2023-08-20T06:29:39;101140.06;;;27.61
45393;BMP280;31129;44.810;10.334;2023-08-20T06:32:04;101129.06;;;27.73
45393;BMP280;31129;44.810;10.334;2023-08-20T06:34:30;101139.59;;;27.82
45393;BMP280;31129;44.810;10.334;2023-08-20T06:36:55;101131.88;;;27.83
45393;BMP280;31129;44.810;10.334;2023-08-20T06:39:21;101134.69;;;28.19
45393;BMP280;31129;44.810;10.334;2023-08-20T06:41:46;101132.44;;;28.18
45393;BMP280;31129;44.810;10.334;2023-08-20T06:44:19;101130.25;;;28.35
45393;BMP280;31129;44.810;10.334;2023-08-20T06:46:44;101146.50;;;28.18
45393;BMP280;31129;44.810;10.334;2023-08-20T06:49:09;101135.88;;;28.26
45393;BMP280;31129;44.810;10.334;2023-08-20T06:51:35;101144.75;;;28.32
45393;BMP280;31129;44.810;10.334;2023-08-20T06:54:01;101142.41;;;28.28
45393;BMP280;31129;44.810;10.334;2023-08-20T06:56:26;101145.97;;;28.48
45393;BMP280;31129;44.810;10.334;2023-08-20T06:58:52;101143.03;;;28.75
45393;BMP280;31129;44.810;10.334;2023-08-20T07:01:17;101147.00;;;28.52
45393;BMP280;31129;44.810;10.334;2023-08-20T07:03:43;101146.13;;;28.59
45393;BMP280;31129;44.810;10.334;2023-08-20T07:06:09;101150.56;;;28.62
45393;BMP280;31129;44.810;10.334;2023-08-20T07:08:35;101136.06;;;28.76
45393;BMP280;31129;44.810;10.334;2023-08-20T07:11:02;101141.22;;;28.98
45393;BMP280;31129;44.810;10.334;2023-08-20T07:13:27;101137.81;;;29.09
45393;BMP280;31129;44.810;10.334;2023-08-20T07:15:52;101141.31;;;29.29
45393;BMP280;31129;44.810;10.334;2023-08-20T07:18:18;101136.72;;;29.34
45393;BMP280;31129;44.810;10.334;2023-08-20T07:20:43;101140.34;;;29.55
45393;BMP280;31129;44.810;10.334;2023-08-20T07:23:10;101143.91;;;29.56
45393;BMP280;31129;44.810;10.334;2023-08-20T07:25:39;101145.38;;;29.57
45393;BMP280;31129;44.810;10.334;2023-08-20T07:28:05;101148.34;;;29.59
45393;BMP280;31129;44.810;10.334;2023-08-20T07:30:30;101152.50;;;29.58
45393;BMP280;31129;44.810;10.334;2023-08-20T07:32:56;101145.53;;;29.59
45393;BMP280;31129;44.810;10.334;2023-08-20T07:35:21;101152.50;;;29.58
45393;BMP280;31129;44.810;10.334;2023-08-20T07:37:47;101149.25;;;29.62
45393;BMP280;31129;44.810;10.334;2023-08-20T07:40:12;101155.66;;;29.43
45393;BMP280;31129;44.810;10.334;2023-08-20T07:42:41;101149.72;;;29.79
45393;BMP280;31129;44.810;10.334;2023-08-20T07:45:07;101164.44;;;29.68
45393;BMP280;31129;44.810;10.334;2023-08-20T07:47:33;101163.97;;;29.81
45393;BMP280;31129;44.810;10.334;2023-08-20T07:49:58;101164.19;;;29.95
45393;BMP280;31129;44.810;10.334;2023-08-20T07:52:24;101162.38;;;29.99
45393;BMP280;31129;44.810;10.334;2023-08-20T07:54:49;101165.03;;;30.07
45393;BMP280;31129;44.810;10.334;2023-08-20T07:57:15;101164.13;;;30.04
45393;BMP280;31129;44.810;10.334;2023-08-20T07:59:40;101165.56;;;30.15
45393;BMP280;31129;44.810;10.334;2023-08-20T08:02:05;101170.19;;;30.32
45393;BMP280;31129;44.810;10.334;2023-08-20T08:04:31;101169.53;;;30.43
45393;BMP280;31129;44.810;10.334;2023-08-20T08:06:56;101171.00;;;30.44
45393;BMP280;31129;44.810;10.334;2023-08-20T08:09:31;101174.97;;;30.50
45393;BMP280;31129;44.810;10.334;2023-08-20T08:11:57;101175.34;;;30.56
45393;BMP280;31129;44.810;10.334;2023-08-20T08:14:23;101174.66;;;30.56
45393;BMP280;31129;44.810;10.334;2023-08-20T08:16:48;101171.88;;;30.68
45393;BMP280;31129;44.810;10.334;2023-08-20T08:19:14;101179.84;;;30.71
45393;BMP280;31129;44.810;10.334;2023-08-20T08:21:40;101174.19;;;30.71
45393;BMP280;31129;44.810;10.334;2023-08-20T08:24:12;101168.94;;;30.77
45393;BMP280;31129;44.810;10.334;2023-08-20T08:26:38;101166.59;;;30.74
45393;BMP280;31129;44.810;10.334;2023-08-20T08:29:04;101167.63;;;30.78
45393;BMP280;31129;44.810;10.334;2023-08-20T08:31:30;101170.47;;;30.90
45393;BMP280;31129;44.810;10.334;2023-08-20T08:33:58;101168.31;;;31.00
45393;BMP280;31129;44.810;10.334;2023-08-20T08:36:24;101162.91;;;31.04
45393;BMP280;31129;44.810;10.334;2023-08-20T08:38:52;101167.69;;;31.01
45393;BMP280;31129;44.810;10.334;2023-08-20T08:41:19;101161.94;;;31.11
45393;BMP280;31129;44.810;10.334;2023-08-20T08:43:46;101180.06;;;30.96
45393;BMP280;31129;44.810;10.334;2023-08-20T08:46:12;101163.56;;;31.14
45393;BMP280;31129;44.810;10.334;2023-08-20T08:48:39;101160.63;;;31.24
45393;BMP280;31129;44.810;10.334;2023-08-20T08:51:05;101159.03;;;31.21
45393;BMP280;31129;44.810;10.334;2023-08-20T08:53:31;101164.22;;;31.36
45393;BMP280;31129;44.810;10.334;2023-08-20T08:55:57;101164.84;;;31.46
45393;BMP280;31129;44.810;10.334;2023-08-20T08:58:23;101160.38;;;31.43
45393;BMP280;31129;44.810;10.334;2023-08-20T09:00:49;101159.91;;;31.35
45393;BMP280;31129;44.810;10.334;2023-08-20T09:03:17;101158.94;;;31.53
45393;BMP280;31129;44.810;10.334;2023-08-20T09:05:49;101158.44;;;31.57
45393;BMP280;31129;44.810;10.334;2023-08-20T09:08:18;101160.75;;;31.72
45393;BMP280;31129;44.810;10.334;2023-08-20T09:10:44;101156.44;;;31.83
45393;BMP280;31129;44.810;10.334;2023-08-20T09:13:09;101159.53;;;31.87
45393;BMP280;31129;44.810;10.334;2023-08-20T09:15:35;101160.28;;;31.87
45393;BMP280;31129;44.810;10.334;2023-08-20T09:18:01;101155.72;;;31.94
45393;BMP280;31129;44.810;10.334;2023-08-20T09:20:35;101160.28;;;31.87
45393;BMP280;31129;44.810;10.334;2023-08-20T09:23:00;101153.50;;;32.04
45393;BMP280;31129;44.810;10.334;2023-08-20T09:25:26;101160.13;;;32.20
45393;BMP280;31129;44.810;10.334;2023-08-20T09:27:52;101157.50;;;32.24
45393;BMP280;31129;44.810;10.334;2023-08-20T09:30:18;101155.75;;;32.31
45393;BMP280;31129;44.810;10.334;2023-08-20T09:32:45;101155.03;;;32.30
45393;BMP280;31129;44.810;10.334;2023-08-20T09:35:27;101159.09;;;32.27
45393;BMP280;31129;44.810;10.334;2023-08-20T09:37:58;101149.75;;;32.50
45393;BMP280;31129;44.810;10.334;2023-08-20T09:40:23;101150.88;;;32.56
45393;BMP280;31129;44.810;10.334;2023-08-20T09:42:49;101148.47;;;32.64
45393;BMP280;31129;44.810;10.334;2023-08-20T09:45:14;101139.69;;;32.47
45393;BMP280;31129;44.810;10.334;2023-08-20T09:47:40;101151.31;;;32.64
45393;BMP280;31129;44.810;10.334;2023-08-20T09:50:12;101140.91;;;32.81
45393;BMP280;31129;44.810;10.334;2023-08-20T09:52:39;101136.72;;;32.82
45393;BMP280;31129;44.810;10.334;2023-08-20T09:55:07;101145.72;;;32.53
45393;BMP280;31129;44.810;10.334;2023-08-20T09:59:59;101136.94;;;32.86
45393;BMP280;31129;44.810;10.334;2023-08-20T10:02:25;101129.44;;;33.04
45393;BMP280;31129;44.810;10.334;2023-08-20T10:04:51;101134.91;;;33.13
45393;BMP280;31129;44.810;10.334;2023-08-20T10:07:17;101134.47;;;33.05
45393;BMP280;31129;44.810;10.334;2023-08-20T10:09:43;101130.59;;;33.12
45393;BMP280;31129;44.810;10.334;2023-08-20T10:12:12;101129.53;;;33.06
45393;BMP280;31129;44.810;10.334;2023-08-20T10:14:37;101122.84;;;33.13
45393;BMP280;31129;44.810;10.334;2023-08-20T10:17:09;101131.00;;;33.07
45393;BMP280;31129;44.810;10.334;2023-08-20T10:19:36;101124.84;;;33.38
45393;BMP280;31129;44.810;10.334;2023-08-20T10:22:03;101131.94;;;33.25
45393;BMP280;31129;44.810;10.334;2023-08-20T10:24:28;101134.31;;;33.42
45393;BMP280;31129;44.810;10.334;2023-08-20T10:27:07;101133.44;;;33.53
45393;BMP280;31129;44.810;10.334;2023-08-20T10:29:40;101129.25;;;33.41
45393;BMP280;31129;44.810;10.334;2023-08-20T10:32:09;101130.63;;;33.40
45393;BMP280;31129;44.810;10.334;2023-08-20T10:34:38;101129.69;;;33.49
45393;BMP280;31129;44.810;10.334;2023-08-20T10:37:13;101129.91;;;33.53
45393;BMP280;31129;44.810;10.334;2023-08-20T10:39:39;101116.56;;;33.55
45393;BMP280;31129;44.810;10.334;2023-08-20T10:42:08;101114.69;;;33.46
45393;BMP280;31129;44.810;10.334;2023-08-20T10:47:19;101108.38;;;33.34
45393;BMP280;31129;44.810;10.334;2023-08-20T10:49:50;101112.78;;;33.64
45393;BMP280;31129;44.810;10.334;2023-08-20T10:52:17;101107.13;;;33.23
45393;BMP280;31129;44.810;10.334;2023-08-20T10:54:49;101103.34;;;33.73
45393;BMP280;31129;44.810;10.334;2023-08-20T10:57:14;101105.09;;;33.80
45393;BMP280;31129;44.810;10.334;2023-08-20T10:59:40;101103.72;;;33.81
45393;BMP280;31129;44.810;10.334;2023-08-20T11:02:06;101099.88;;;33.61
45393;BMP280;31129;44.810;10.334;2023-08-20T11:04:34;101096.31;;;33.74
45393;BMP280;31129;44.810;10.334;2023-08-20T11:07:00;101097.63;;;33.87
45393;BMP280;31129;44.810;10.334;2023-08-20T11:09:26;101103.03;;;34.10
45393;BMP280;31129;44.810;10.334;2023-08-20T11:11:52;101097.03;;;34.18
45393;BMP280;31129;44.810;10.334;2023-08-20T11:14:18;101099.53;;;34.12
45393;BMP280;31129;44.810;10.334;2023-08-20T11:16:44;101095.78;;;33.78
45393;BMP280;31129;44.810;10.334;2023-08-20T11:19:10;101088.94;;;34.12
45393;BMP280;31129;44.810;10.334;2023-08-20T11:21:36;101093.66;;;34.21
45393;BMP280;31129;44.810;10.334;2023-08-20T11:24:02;101087.50;;;34.11
45393;BMP280;31129;44.810;10.334;2023-08-20T11:26:28;101085.81;;;34.35
45393;BMP280;31129;44.810;10.334;2023-08-20T11:28:54;101091.53;;;34.51
45393;BMP280;31129;44.810;10.334;2023-08-20T11:31:19;101086.84;;;34.58
45393;BMP280;31129;44.810;10.334;2023-08-20T11:33:45;101089.69;;;34.73
45393;BMP280;31129;44.810;10.334;2023-08-20T11:36:16;101084.47;;;34.68
45393;BMP280;31129;44.810;10.334;2023-08-20T11:38:51;101092.63;;;34.75
45393;BMP280;31129;44.810;10.334;2023-08-20T11:41:23;101090.06;;;34.81
45393;BMP280;31129;44.810;10.334;2023-08-20T11:43:49;101089.59;;;35.03
45393;BMP280;31129;44.810;10.334;2023-08-20T11:46:15;101078.16;;;35.01
45393;BMP280;31129;44.810;10.334;2023-08-20T11:49:00;101082.16;;;35.27
45393;BMP280;31129;44.810;10.334;2023-08-20T11:51:26;101078.31;;;35.38
45393;BMP280;31129;44.810;10.334;2023-08-20T11:53:52;101076.16;;;35.36
45393;BMP280;31129;44.810;10.334;2023-08-20T11:56:18;101076.69;;;35.33
45393;BMP280;31129;44.810;10.334;2023-08-20T11:58:43;101073.81;;;35.48
45393;BMP280;31129;44.810;10.334;2023-08-20T12:01:09;101075.19;;;35.47
45393;BMP280;31129;44.810;10.334;2023-08-20T12:03:36;101081.09;;;35.69
45393;BMP280;31129;44.810;10.334;2023-08-20T12:06:18;101079.53;;;35.66
45393;BMP280;31129;44.810;10.334;2023-08-20T12:08:47;101075.38;;;35.52
45393;BMP280;31129;44.810;10.334;2023-08-20T12:11:16;101067.06;;;35.40
45393;BMP280;31129;44.810;10.334;2023-08-20T12:13:42;101076.38;;;35.76
45393;BMP280;31129;44.810;10.334;2023-08-20T12:16:07;101085.56;;;35.92
45393;BMP280;31129;44.810;10.334;2023-08-20T12:18:33;101066.53;;;35.79
45393;BMP280;31129;44.810;10.334;2023-08-20T12:21:00;101062.75;;;35.90
45393;BMP280;31129;44.810;10.334;2023-08-20T12:23:25;101064.25;;;35.58
45393;BMP280;31129;44.810;10.334;2023-08-20T12:25:51;101071.56;;;35.98
45393;BMP280;31129;44.810;10.334;2023-08-20T12:28:17;101058.97;;;36.21
45393;BMP280;31129;44.810;10.334;2023-08-20T12:30:43;101069.34;;;36.32
45393;BMP280;31129;44.810;10.334;2023-08-20T12:33:08;101055.28;;;36.36
45393;BMP280;31129;44.810;10.334;2023-08-20T12:35:35;101063.16;;;36.37
45393;BMP280;31129;44.810;10.334;2023-08-20T12:38:04;101066.00;;;36.57
45393;BMP280;31129;44.810;10.334;2023-08-20T12:40:30;101062.75;;;36.27
45393;BMP280;31129;44.810;10.334;2023-08-20T12:42:55;101063.75;;;36.73
45393;BMP280;31129;44.810;10.334;2023-08-20T12:45:21;101057.31;;;36.33
45393;BMP280;31129;44.810;10.334;2023-08-20T12:47:47;101054.03;;;36.41
45393;BMP280;31129;44.810;10.334;2023-08-20T12:50:12;101053.13;;;36.54
45393;BMP280;31129;44.810;10.334;2023-08-20T12:52:39;101054.50;;;36.53
45393;BMP280;31129;44.810;10.334;2023-08-20T12:55:09;101041.94;;;36.60
45393;BMP280;31129;44.810;10.334;2023-08-20T12:57:41;101045.13;;;36.90
45393;BMP280;31129;44.810;10.334;2023-08-20T13:00:19;101040.66;;;37.04
45393;BMP280;31129;44.810;10.334;2023-08-20T13:03:09;101042.22;;;37.29
45393;BMP280;31129;44.810;10.334;2023-08-20T13:05:37;101039.91;;;37.23
45393;BMP280;31129;44.810;10.334;2023-08-20T13:08:03;101042.22;;;37.29
45393;BMP280;31129;44.810;10.334;2023-08-20T13:10:29;101040.06;;;37.08
45393;BMP280;31129;44.810;10.334;2023-08-20T13:12:59;101034.47;;;37.53
45393;BMP280;31129;44.810;10.334;2023-08-20T13:15:26;101043.22;;;37.59
45393;BMP280;31129;44.810;10.334;2023-08-20T13:17:53;101035.09;;;37.73
45393;BMP280;31129;44.810;10.334;2023-08-20T13:20:18;101033.84;;;37.78
45393;BMP280;31129;44.810;10.334;2023-08-20T13:22:51;101021.69;;;38.02
45393;BMP280;31129;44.810;10.334;2023-08-20T13:25:17;101027.75;;;37.90
45393;BMP280;31129;44.810;10.334;2023-08-20T13:27:42;101024.84;;;37.88
45393;BMP280;31129;44.810;10.334;2023-08-20T13:30:08;101020.28;;;37.79
45393;BMP280;31129;44.810;10.334;2023-08-20T13:32:37;101013.50;;;37.90
45393;BMP280;31129;44.810;10.334;2023-08-20T13:35:02;101012.22;;;38.19
45393;BMP280;31129;44.810;10.334;2023-08-20T13:37:32;101011.13;;;38.30
45393;BMP280;31129;44.810;10.334;2023-08-20T13:39:58;101013.78;;;38.49
45393;BMP280;31129;44.810;10.334;2023-08-20T13:42:23;101010.44;;;38.57
45393;BMP280;31129;44.810;10.334;2023-08-20T13:44:49;101009.44;;;38.46
45393;BMP280;31129;44.810;10.334;2023-08-20T13:47:15;101005.38;;;38.81
45393;BMP280;31129;44.810;10.334;2023-08-20T13:49:40;101000.78;;;38.70
45393;BMP280;31129;44.810;10.334;2023-08-20T13:52:06;101011.66;;;38.76
45393;BMP280;31129;44.810;10.334;2023-08-20T13:54:32;101011.69;;;38.50
45393;BMP280;31129;44.810;10.334;2023-08-20T13:56:58;101007.09;;;38.67
45393;BMP280;31129;44.810;10.334;2023-08-20T13:59:24;101006.91;;;38.86